Ferrelview, Missouri
Current Conditions -  °F | °C
As of 5:53 PM on Monday 24 Nov 2014 (Local Time) from KMCI Reporting Station
Clear Clear  
Wind Chill: 27°   Ceiling: Unl
Heat Index: 33°   Visibility: 10mi
Dew Point: 23°   Wind: 7mph
Humidity: 66%   Direction: 280°W
Pressure: 29.94"   Gusts: NA
Location:  39.3419°N, 94.7209°W
Report Text: KMCI 242353Z 28006KT 10SM CLR 01/M05 A2994 RMK AO2 SLP146 T00061050 10039 20006 53034
Loading
Personal Weather Stations






























Interactive Weather Map New forecast layout! Learn more

10-Day Weather Forecast

Advertisements
Track Severe Weather on mobile